Terminal Aerodrome Forecast
Issued by NWS Amarillo, TX

Home | Current Version | Previous Version | Text Only | Print | Product List | Glossary On
Versions: 1 2 3 4 5 6 7 8 9 10 11 12 13 14
000
FTUS44 KAMA 231700
TAFDHT
TAF
KDHT 231720Z 2318/2418 35030G40KT P6SM OVC050
      TEMPO 2318/2321 5SM -RASN BKN030
     FM240000 32012KT P6SM BKN100=

USA.gov is the U.S. government's official web portal to all federal, state and local government web resources and services.